createdAt,value
2023-02-28T00:00:38.929Z,102966.13
2023-02-28T00:03:05.948Z,102957.03
2023-02-28T00:05:33.115Z,102965.28
2023-02-28T00:07:59.743Z,102970.81
2023-02-28T00:10:29.481Z,102959.78
2023-02-28T00:13:00.710Z,102966.13
2023-02-28T00:15:27.982Z,102977.69
2023-02-28T00:17:54.766Z,102963.09
2023-02-28T00:20:21.888Z,102964.78
2023-02-28T00:22:53.159Z,102969.19
2023-02-28T00:25:23.275Z,102964.25
2023-02-28T00:27:50.036Z,102971.41
2023-02-28T00:30:22.802Z,102972.22
2023-02-28T00:32:50.737Z,102965.91
2023-02-28T00:35:19.288Z,102977.72
2023-02-28T00:37:45.896Z,102977.72
2023-02-28T00:40:13.353Z,102979.69
2023-02-28T00:42:40.888Z,102977.72
2023-02-28T00:45:09.315Z,102980.22
2023-02-28T00:47:36.773Z,102981.34
2023-02-28T00:50:04.327Z,102983.00
2023-02-28T00:52:31.055Z,102980.81
2023-02-28T00:54:57.788Z,102976.13
2023-02-28T00:57:24.884Z,102982.72
2023-02-28T00:59:51.488Z,102974.22
2023-02-28T01:02:19.085Z,102978.91
2023-02-28T01:04:45.918Z,102993.50
2023-02-28T01:07:13.122Z,102983.56
2023-02-28T01:09:40.214Z,102976.97
2023-02-28T01:12:08.296Z,102979.72
2023-02-28T01:14:35.880Z,102988.00
2023-02-28T01:17:02.794Z,102991.84
2023-02-28T01:19:29.484Z,102997.34
2023-02-28T01:21:56.113Z,102997.34
2023-02-28T01:24:22.706Z,102997.34
2023-02-28T01:26:49.390Z,102983.56
2023-02-28T01:29:16.530Z,102991.84
2023-02-28T01:31:43.148Z,102987.16
2023-02-28T01:34:09.771Z,102983.56
2023-02-28T01:36:37.320Z,102991.84
2023-02-28T01:39:04.210Z,102987.16
2023-02-28T01:41:33.682Z,102988.00
2023-02-28T01:44:28.030Z,102986.88
2023-02-28T01:46:54.619Z,102989.91
2023-02-28T01:49:21.549Z,102980.81
2023-02-28T01:51:51.991Z,102989.06
2023-02-28T01:54:28.113Z,102989.06
2023-02-28T01:57:00.158Z,102983.31
2023-02-28T01:59:34.712Z,102984.13
2023-02-28T02:02:02.859Z,102992.38
2023-02-28T02:04:37.114Z,102984.97
2023-02-28T02:07:04.979Z,102985.78
2023-02-28T02:09:31.646Z,102988.53
2023-02-28T02:12:00.403Z,102996.81
2023-02-28T02:14:33.415Z,102988.53
2023-02-28T02:17:39.195Z,102979.19
2023-02-28T02:20:18.010Z,102984.72
2023-02-28T02:23:09.224Z,102988.53
2023-02-28T02:25:39.852Z,102987.72
2023-02-28T02:28:37.596Z,102988.00
2023-02-28T02:31:37.613Z,102991.84
2023-02-28T02:34:23.007Z,102984.66
2023-02-28T02:37:14.995Z,102989.06
2023-02-28T02:40:12.785Z,102989.34
2023-02-28T02:43:02.194Z,102985.50
2023-02-28T02:45:47.462Z,102985.50
2023-02-28T02:48:21.787Z,102988.25
2023-02-28T02:50:56.265Z,102978.59
2023-02-28T02:53:28.933Z,102971.44
2023-02-28T02:55:57.333Z,102974.19
2023-02-28T02:58:32.815Z,102979.72
2023-02-28T03:01:03.180Z,102987.97
2023-02-28T03:03:32.088Z,102977.75
2023-02-28T03:06:01.162Z,102990.72
2023-02-28T03:08:30.497Z,102973.59
2023-02-28T03:11:00.550Z,102975.56
2023-02-28T03:14:01.082Z,102974.72
2023-02-28T03:16:33.968Z,102976.91
2023-02-28T03:19:38.035Z,102974.41
2023-02-28T03:22:20.838Z,102981.00
2023-02-28T03:25:21.815Z,102987.63
2023-02-28T03:28:20.800Z,102990.63
2023-02-28T03:30:47.404Z,102983.47
2023-02-28T03:33:14.099Z,102988.16
2023-02-28T03:35:50.970Z,102983.47
2023-02-28T03:38:34.235Z,102985.69
2023-02-28T03:41:12.796Z,102982.66
2023-02-28T03:43:44.033Z,102988.16
2023-02-28T03:46:14.025Z,102989.22
2023-02-28T03:48:57.549Z,102992.00
2023-02-28T03:51:25.568Z,102990.06
2023-02-28T03:53:57.775Z,102989.00
2023-02-28T03:56:37.997Z,102990.91
2023-02-28T03:59:22.526Z,102994.50
2023-02-28T04:01:50.490Z,102992.81
2023-02-28T04:04:18.520Z,102992.81
2023-02-28T04:06:46.174Z,103002.75
2023-02-28T04:09:15.833Z,103000.00
2023-02-28T04:11:50.282Z,102991.47
2023-02-28T04:14:16.877Z,102990.63
2023-02-28T04:16:43.652Z,102993.38
2023-02-28T04:19:12.028Z,102996.97
2023-02-28T04:21:41.429Z,102996.13
2023-02-28T04:24:15.437Z,103007.16
2023-02-28T04:26:44.733Z,103004.66
2023-02-28T04:29:13.237Z,103010.19
2023-02-28T04:31:40.314Z,103015.69
2023-02-28T04:34:07.223Z,103017.59
2023-02-28T04:36:33.876Z,103017.34
2023-02-28T04:39:00.787Z,103022.88
2023-02-28T04:41:29.652Z,103009.34
2023-02-28T04:43:58.486Z,103014.59
2023-02-28T04:46:25.327Z,103016.53
2023-02-28T04:48:51.956Z,103027.53
2023-02-28T04:51:20.728Z,103022.03
2023-02-28T04:53:49.267Z,103031.38
2023-02-28T04:56:18.108Z,103043.50
2023-02-28T04:58:45.437Z,103043.97
2023-02-28T05:01:23.274Z,103036.72
2023-02-28T05:03:50.554Z,103041.59
2023-02-28T05:06:17.981Z,103046.25
2023-02-28T05:08:44.579Z,103037.13
2023-02-28T05:11:20.295Z,103037.88
2023-02-28T05:13:47.240Z,103034.25
2023-02-28T05:16:14.283Z,103030.66
2023-02-28T05:18:41.806Z,103030.34
2023-02-28T05:21:27.569Z,103039.88
2023-02-28T05:23:55.983Z,103036.31
2023-02-28T05:26:23.467Z,103032.72
2023-02-28T05:28:50.082Z,103047.31
2023-02-28T05:31:16.797Z,103042.38
2023-02-28T05:33:44.593Z,103044.88
2023-02-28T05:36:11.454Z,103041.00
2023-02-28T05:38:39.002Z,103050.38
2023-02-28T05:41:10.117Z,103050.38
2023-02-28T05:43:38.092Z,103053.13
2023-02-28T05:46:06.726Z,103048.44
2023-02-28T05:48:35.839Z,103056.13
2023-02-28T05:51:03.616Z,103064.38
2023-02-28T05:53:30.947Z,103062.19
2023-02-28T05:55:57.956Z,103059.44
2023-02-28T05:58:26.630Z,103056.44
2023-02-28T06:00:53.240Z,103060.03
2023-02-28T06:03:19.889Z,103055.34
2023-02-28T06:05:46.543Z,103057.00
2023-02-28T06:08:13.145Z,103054.53
2023-02-28T06:10:39.746Z,103062.78
2023-02-28T06:13:07.080Z,103060.53
2023-02-28T06:15:33.795Z,103055.56
2023-02-28T06:18:00.861Z,103051.72
2023-02-28T06:20:31.726Z,103055.03
2023-02-28T06:23:01.798Z,103062.19
2023-02-28T06:25:28.879Z,103065.19
2023-02-28T06:27:56.561Z,103055.56
2023-02-28T06:30:27.793Z,103066.00
2023-02-28T06:32:55.703Z,103053.25
2023-02-28T06:35:23.625Z,103065.94
2023-02-28T06:37:50.299Z,103065.34
2023-02-28T06:40:17.148Z,103069.44
2023-02-28T06:42:43.870Z,103075.78
2023-02-28T06:45:11.754Z,103085.94
2023-02-28T06:47:42.427Z,103074.69
2023-02-28T06:50:11.676Z,103077.44
2023-02-28T06:52:38.639Z,103087.34
2023-02-28T06:55:08.166Z,103085.69
2023-02-28T06:57:36.895Z,103085.94
2023-02-28T07:00:08.729Z,103098.28
2023-02-28T07:02:37.023Z,103103.22
2023-02-28T07:05:07.592Z,103106.47
2023-02-28T07:07:35.271Z,103101.50
2023-02-28T07:10:03.798Z,103108.09
2023-02-28T07:12:30.429Z,103104.50
2023-02-28T07:14:59.313Z,103118.50
2023-02-28T07:17:26.020Z,103109.16
2023-02-28T07:19:52.680Z,103115.50
2023-02-28T07:22:19.290Z,103113.31
2023-02-28T07:24:45.980Z,103114.72
2023-02-28T07:27:12.630Z,103121.34
2023-02-28T07:29:39.343Z,103134.47
2023-02-28T07:32:06.042Z,103136.09
2023-02-28T07:34:32.661Z,103128.31
2023-02-28T07:36:59.357Z,103134.09
2023-02-28T07:39:26.034Z,103131.56
2023-02-28T07:41:53.841Z,103136.75
2023-02-28T07:44:21.639Z,103144.97
2023-02-28T07:46:48.758Z,103129.84
2023-02-28T07:49:15.499Z,103137.00
2023-02-28T07:51:42.686Z,103132.59
2023-02-28T07:54:09.310Z,103131.50
2023-02-28T07:56:36.063Z,103140.31
2023-02-28T07:59:02.803Z,103142.00
2023-02-28T08:01:30.010Z,103145.88
2023-02-28T08:03:58.060Z,103147.81
2023-02-28T08:06:26.702Z,103151.66
2023-02-28T08:08:54.250Z,103152.72
2023-02-28T08:11:20.861Z,103150.81
2023-02-28T08:13:47.625Z,103156.31
2023-02-28T08:16:23.062Z,103154.97
2023-02-28T08:18:54.107Z,103150.31
2023-02-28T08:21:21.698Z,103158.09
2023-02-28T08:23:52.443Z,103156.47
2023-02-28T08:26:19.442Z,103162.31
2023-02-28T08:28:46.858Z,103160.97
2023-02-28T08:31:16.030Z,103162.13
2023-02-28T08:33:43.348Z,103163.25
2023-02-28T08:36:10.587Z,103166.91
2023-02-28T08:38:37.991Z,103163.38
2023-02-28T08:41:10.265Z,103156.84
2023-02-28T08:43:37.355Z,103168.19
2023-02-28T08:46:04.981Z,103165.72
2023-02-28T08:48:34.472Z,103164.16
2023-02-28T08:51:07.636Z,103165.59
2023-02-28T08:53:35.047Z,103174.75
2023-02-28T08:56:06.398Z,103174.81
2023-02-28T08:58:33.188Z,103169.84
2023-02-28T09:01:01.710Z,103169.91
2023-02-28T09:03:28.338Z,103163.06
2023-02-28T09:06:00.309Z,103179.31
2023-02-28T09:08:29.580Z,103164.97
2023-02-28T09:10:58.135Z,103183.16
2023-02-28T09:13:26.557Z,103173.81
2023-02-28T09:15:54.178Z,103181.25
2023-02-28T09:18:21.538Z,103187.59
2023-02-28T09:20:48.165Z,103187.31
2023-02-28T09:23:15.169Z,103185.41
2023-02-28T09:25:48.607Z,103190.91
2023-02-28T09:28:18.315Z,103194.22
2023-02-28T09:30:48.818Z,103194.25
2023-02-28T09:33:17.211Z,103192.41
2023-02-28T09:35:44.410Z,103197.97
2023-02-28T09:38:11.669Z,103197.19
2023-02-28T09:40:48.223Z,103186.78
2023-02-28T09:43:18.640Z,103193.22
2023-02-28T09:45:51.109Z,103191.09
2023-02-28T09:48:26.288Z,103192.63
2023-02-28T09:51:00.425Z,103201.81
2023-02-28T09:53:28.296Z,103189.75
2023-02-28T09:56:12.512Z,103194.50
2023-02-28T09:58:42.961Z,103197.03
2023-02-28T10:01:29.040Z,103188.03
2023-02-28T10:04:04.687Z,103183.66
2023-02-28T10:06:37.707Z,103194.97
2023-02-28T10:09:15.267Z,103191.38
2023-02-28T10:11:43.891Z,103187.47
2023-02-28T10:14:23.828Z,103193.53
2023-02-28T10:16:56.623Z,103195.13
2023-02-28T10:19:35.815Z,103181.00
2023-02-28T10:22:11.762Z,103192.31
2023-02-28T10:24:47.494Z,103184.56
2023-02-28T10:27:24.349Z,103183.75
2023-02-28T10:29:56.922Z,103194.00
2023-02-28T10:32:35.404Z,103192.84
2023-02-28T10:35:19.568Z,103205.59
2023-02-28T10:37:49.351Z,103195.25
2023-02-28T10:40:18.845Z,103199.16
2023-02-28T10:43:06.623Z,103206.16
2023-02-28T10:45:37.128Z,103212.22
2023-02-28T10:48:15.649Z,103200.69
2023-02-28T10:50:53.233Z,103204.28
2023-02-28T10:53:25.841Z,103203.19
2023-02-28T10:56:00.144Z,103199.88
2023-02-28T10:58:49.844Z,103204.03
2023-02-28T11:01:20.786Z,103193.81
2023-02-28T11:03:48.038Z,103198.50
2023-02-28T11:06:20.211Z,103190.78
2023-02-28T11:08:58.868Z,103200.19
2023-02-28T11:11:29.173Z,103205.41
2023-02-28T11:14:03.853Z,103204.31
2023-02-28T11:16:38.929Z,103206.56
2023-02-28T11:19:17.739Z,103196.63
2023-02-28T11:21:54.371Z,103198.53
2023-02-28T11:24:32.161Z,103192.44
2023-02-28T11:26:59.034Z,103189.41
2023-02-28T11:29:31.438Z,103186.94
2023-02-28T11:32:15.286Z,103185.00
2023-02-28T11:34:43.126Z,103186.63
2023-02-28T11:37:20.871Z,103196.28
2023-02-28T11:39:47.707Z,103203.09
2023-02-28T11:42:46.721Z,103203.56
2023-02-28T11:45:51.634Z,103211.78
2023-02-28T11:48:28.348Z,103199.31
2023-02-28T11:51:03.972Z,103194.59
2023-02-28T11:53:59.225Z,103193.75
2023-02-28T11:56:38.597Z,103192.91
2023-02-28T11:59:33.536Z,103193.53
2023-02-28T12:02:06.490Z,103193.09
2023-02-28T12:05:07.144Z,103199.78
2023-02-28T12:08:04.687Z,103188.53
2023-02-28T12:10:38.485Z,103195.75
2023-02-28T12:13:20.778Z,103186.63
2023-02-28T12:16:32.532Z,103184.41
2023-02-28T12:19:14.060Z,103180.56
2023-02-28T12:22:09.877Z,103170.06
2023-02-28T12:24:51.470Z,103173.69
2023-02-28T12:27:22.863Z,103175.06
2023-02-28T12:30:22.697Z,103185.03
2023-02-28T12:33:05.504Z,103178.41
2023-02-28T12:35:39.733Z,103175.34
2023-02-28T12:38:13.973Z,103172.81
2023-02-28T12:41:03.122Z,103178.84
2023-02-28T12:43:38.699Z,103177.44
2023-02-28T12:46:28.466Z,103168.66
2023-02-28T12:48:59.546Z,103167.56
2023-02-28T12:51:28.256Z,103154.63
2023-02-28T12:54:08.409Z,103167.91
2023-02-28T12:56:45.640Z,103159.88
2023-02-28T12:59:22.045Z,103159.53
2023-02-28T13:01:51.756Z,103159.19
2023-02-28T13:04:37.603Z,103159.41
2023-02-28T13:07:13.403Z,103156.38
2023-02-28T13:09:41.205Z,103152.75
2023-02-28T13:12:16.337Z,103158.00
2023-02-28T13:14:43.303Z,103154.41
2023-02-28T13:17:13.044Z,103149.44
2023-02-28T13:19:46.709Z,103146.38
2023-02-28T13:22:45.220Z,103146.63
2023-02-28T13:25:23.816Z,103141.13
2023-02-28T13:27:58.150Z,103151.56
2023-02-28T13:30:56.888Z,103138.84
2023-02-28T13:33:32.016Z,103144.34
2023-02-28T13:36:10.493Z,103136.00
2023-02-28T13:38:46.329Z,103128.56
2023-02-28T13:41:32.201Z,103120.03
2023-02-28T13:44:12.649Z,103131.59
2023-02-28T13:46:48.629Z,103116.66
2023-02-28T13:49:25.882Z,103120.78
2023-02-28T13:52:07.733Z,103122.16
2023-02-28T13:54:34.491Z,103114.22
2023-02-28T13:57:21.740Z,103104.28
2023-02-28T14:00:18.066Z,103112.84
2023-02-28T14:02:53.925Z,103105.69
2023-02-28T14:05:26.638Z,103105.47
2023-02-28T14:07:58.305Z,103105.22
2023-02-28T14:10:40.408Z,103108.03
2023-02-28T14:13:28.686Z,103108.28
2023-02-28T14:16:00.059Z,103119.03
2023-02-28T14:18:38.870Z,103105.25
2023-02-28T14:21:14.073Z,103102.19
2023-02-28T14:24:14.527Z,103104.13
2023-02-28T14:26:46.795Z,103103.59
2023-02-28T14:29:44.485Z,103095.31
2023-02-28T14:32:35.230Z,103100.81
2023-02-28T14:35:34.160Z,103095.84
2023-02-28T14:38:04.666Z,103102.72
2023-02-28T14:40:34.493Z,103100.81
2023-02-28T14:43:05.003Z,103102.47
2023-02-28T14:45:34.154Z,103097.22
2023-02-28T14:48:03.603Z,103099.13
2023-02-28T14:50:37.354Z,103101.63
2023-02-28T14:53:07.291Z,103095.28
2023-02-28T14:55:36.719Z,103100.25
2023-02-28T14:58:22.954Z,103096.09
2023-02-28T15:00:52.295Z,103092.50
2023-02-28T15:03:42.966Z,103094.94
2023-02-28T15:06:18.834Z,103090.25
2023-02-28T15:08:46.484Z,103095.72
2023-02-28T15:11:25.309Z,103098.19
2023-02-28T15:13:57.427Z,103078.34
2023-02-28T15:16:32.880Z,103086.31
2023-02-28T15:19:08.163Z,103082.16
2023-02-28T15:21:42.797Z,103086.81
2023-02-28T15:24:25.611Z,103082.44
2023-02-28T15:26:58.857Z,103077.44
2023-02-28T15:29:29.876Z,103085.44
2023-02-28T15:32:01.193Z,103076.31
2023-02-28T15:34:43.110Z,103081.28
2023-02-28T15:37:33.327Z,103081.28
2023-02-28T15:40:28.903Z,103080.75
2023-02-28T15:43:23.675Z,103070.56
2023-02-28T15:45:53.863Z,103075.81
2023-02-28T15:48:23.583Z,103075.25
2023-02-28T15:50:56.556Z,103092.31
2023-02-28T15:53:27.607Z,103081.81
2023-02-28T15:56:02.311Z,103073.81
2023-02-28T15:58:29.716Z,103080.69
2023-02-28T16:01:09.090Z,103074.03
2023-02-28T16:03:46.477Z,103071.25
2023-02-28T16:06:36.110Z,103077.88
2023-02-28T16:09:04.240Z,103078.97
2023-02-28T16:11:42.034Z,103090.19
2023-02-28T16:14:19.779Z,103071.72
2023-02-28T16:16:50.353Z,103084.94
2023-02-28T16:19:17.818Z,103082.19
2023-02-28T16:21:44.592Z,103080.50
2023-02-28T16:24:11.302Z,103075.28
2023-02-28T16:26:42.365Z,103078.88
2023-02-28T16:29:16.755Z,103084.94
2023-02-28T16:31:43.457Z,103085.22
2023-02-28T16:34:10.123Z,103090.13
2023-02-28T16:36:36.770Z,103082.16
2023-02-28T16:39:03.930Z,103090.97
2023-02-28T16:41:31.107Z,103087.91
2023-02-28T16:44:01.230Z,103086.50
2023-02-28T16:46:46.021Z,103086.50
2023-02-28T16:49:14.111Z,103090.38
2023-02-28T16:51:42.296Z,103090.63
2023-02-28T16:54:08.962Z,103087.84
2023-02-28T16:56:35.945Z,103086.47
2023-02-28T16:59:03.467Z,103087.56
2023-02-28T17:01:30.818Z,103081.25
2023-02-28T17:03:57.858Z,103079.88
2023-02-28T17:06:30.150Z,103091.97
2023-02-28T17:08:58.922Z,103087.81
2023-02-28T17:11:26.368Z,103088.09
2023-02-28T17:13:54.991Z,103089.75
2023-02-28T17:16:30.591Z,103089.19
2023-02-28T17:19:05.699Z,103093.59
2023-02-28T17:21:35.171Z,103097.72
2023-02-28T17:24:02.037Z,103091.66
2023-02-28T17:26:29.357Z,103096.31
2023-02-28T17:28:58.023Z,103098.25
2023-02-28T17:31:26.191Z,103101.00
2023-02-28T17:33:53.559Z,103099.03
2023-02-28T17:36:26.676Z,103097.34
2023-02-28T17:38:56.158Z,103095.69
2023-02-28T17:41:23.219Z,103097.88
2023-02-28T17:43:51.374Z,103098.16
2023-02-28T17:46:21.362Z,103100.06
2023-02-28T17:48:52.336Z,103101.16
2023-02-28T17:51:21.222Z,103109.41
2023-02-28T17:53:47.887Z,103100.06
2023-02-28T17:56:18.465Z,103105.81
2023-02-28T17:58:45.097Z,103107.75
2023-02-28T18:01:13.020Z,103108.84
2023-02-28T18:03:40.186Z,103112.94
2023-02-28T18:06:07.688Z,103112.13
2023-02-28T18:08:36.338Z,103114.88
2023-02-28T18:11:03.221Z,103120.94
2023-02-28T18:13:29.935Z,103122.88
2023-02-28T18:15:56.577Z,103135.25
2023-02-28T18:18:24.045Z,103139.63
2023-02-28T18:20:50.933Z,103135.25
2023-02-28T18:23:19.180Z,103130.31
2023-02-28T18:25:45.984Z,103136.88
2023-02-28T18:28:13.498Z,103140.47
2023-02-28T18:30:40.178Z,103143.22
2023-02-28T18:33:06.878Z,103141.31
2023-02-28T18:35:36.234Z,103141.81
2023-02-28T18:38:02.905Z,103136.59
2023-02-28T18:40:29.542Z,103146.50
2023-02-28T18:42:56.174Z,103129.97
2023-02-28T18:45:22.812Z,103127.50
2023-02-28T18:47:49.791Z,103116.50
2023-02-28T18:50:16.894Z,103129.97
2023-02-28T18:52:43.532Z,103129.16
2023-02-28T18:55:12.491Z,103118.13
2023-02-28T18:57:39.235Z,103117.34
2023-02-28T19:00:09.581Z,103117.63
2023-02-28T19:09:25.217Z,103128.03
2023-02-28T19:11:51.954Z,103125.25
2023-02-28T19:14:18.837Z,103135.16
2023-02-28T19:16:47.295Z,103132.69
2023-02-28T19:19:14.069Z,103133.53
2023-02-28T19:21:41.757Z,103135.16
2023-02-28T19:24:08.452Z,103136.28
2023-02-28T19:26:35.164Z,103129.09
2023-02-28T19:29:05.533Z,103132.13
2023-02-28T19:31:33.664Z,103136.47
2023-02-28T19:34:01.474Z,103134.00
2023-02-28T19:36:28.569Z,103135.91
2023-02-28T19:38:55.202Z,103131.22
2023-02-28T19:41:21.938Z,103133.44
2023-02-28T19:43:48.803Z,103141.09
2023-02-28T19:46:15.625Z,103136.13
2023-02-28T19:48:44.721Z,103147.38
2023-02-28T19:51:13.574Z,103142.97
2023-02-28T19:53:41.562Z,103145.72
2023-02-28T19:56:09.242Z,103139.63
2023-02-28T19:58:36.225Z,103146.47
2023-02-28T20:01:17.485Z,103150.34
2023-02-28T20:03:49.456Z,103158.31
2023-02-28T20:06:16.121Z,103160.50
2023-02-28T20:08:43.322Z,103155.25
2023-02-28T20:11:13.293Z,103144.25
2023-02-28T20:13:40.085Z,103150.84
2023-02-28T20:16:10.243Z,103163.50
2023-02-28T20:18:38.437Z,103159.66
2023-02-28T20:21:07.569Z,103147.00
2023-02-28T20:23:34.340Z,103151.97
2023-02-28T20:26:01.162Z,103148.16
2023-02-28T20:28:28.111Z,103145.63
2023-02-28T20:30:54.891Z,103156.06
2023-02-28T20:33:21.926Z,103148.66
2023-02-28T20:35:49.673Z,103150.34
2023-02-28T20:38:16.338Z,103154.72
2023-02-28T20:40:43.060Z,103157.25
2023-02-28T20:43:09.821Z,103149.78
2023-02-28T20:45:36.474Z,103143.50
2023-02-28T20:48:03.369Z,103138.78
2023-02-28T20:50:30.642Z,103129.47
2023-02-28T20:52:57.365Z,103133.28
2023-02-28T20:55:23.938Z,103141.53
2023-02-28T20:57:50.829Z,103133.28
2023-02-28T21:00:20.578Z,103137.16
2023-02-28T21:02:47.543Z,103130.81
2023-02-28T21:05:15.426Z,103124.47
2023-02-28T21:07:42.330Z,103134.41
2023-02-28T21:10:10.033Z,103132.72
2023-02-28T21:12:36.671Z,103132.47
2023-02-28T21:15:03.590Z,103132.72
2023-02-28T21:17:30.204Z,103128.34
2023-02-28T21:19:56.789Z,103135.22
2023-02-28T21:22:23.431Z,103120.38
2023-02-28T21:24:50.049Z,103125.03
2023-02-28T21:27:16.703Z,103131.66
2023-02-28T21:29:43.615Z,103133.28
2023-02-28T21:32:10.323Z,103129.72
2023-02-28T21:34:36.977Z,103126.16
2023-02-28T21:37:03.858Z,103121.72
2023-02-28T21:39:30.885Z,103122.00
2023-02-28T21:42:03.514Z,103117.56
2023-02-28T21:44:31.998Z,103123.34
2023-02-28T21:47:01.051Z,103117.00
2023-02-28T21:49:28.820Z,103124.41
2023-02-28T21:51:55.521Z,103123.34
2023-02-28T21:54:22.415Z,103118.69
2023-02-28T21:56:50.844Z,103120.03
2023-02-28T21:59:18.889Z,103131.03
2023-02-28T22:01:46.070Z,103130.19
2023-02-28T22:04:21.107Z,103123.84
2023-02-28T22:06:57.314Z,103121.94
2023-02-28T22:09:24.092Z,103112.84
2023-02-28T22:11:50.837Z,103116.69
2023-02-28T22:14:17.812Z,103111.19
2023-02-28T22:16:51.699Z,103119.44
2023-02-28T22:19:19.742Z,103118.59
2023-02-28T22:21:47.556Z,103118.34
2023-02-28T22:24:15.813Z,103119.44
2023-02-28T22:26:42.503Z,103120.03
2023-02-28T22:29:09.177Z,103115.59
2023-02-28T22:31:36.309Z,103112.84
2023-02-28T22:34:08.832Z,103106.50
2023-02-28T22:36:35.886Z,103117.28
2023-02-28T22:39:04.157Z,103117.00
2023-02-28T22:41:31.033Z,103119.19
2023-02-28T22:44:00.413Z,103120.53
2023-02-28T22:46:29.923Z,103118.28
2023-02-28T22:48:59.040Z,103117.72
2023-02-28T22:51:27.706Z,103113.81
2023-02-28T22:53:55.846Z,103118.75
2023-02-28T22:56:24.890Z,103114.84
2023-02-28T22:58:57.177Z,103119.78
2023-02-28T23:01:24.928Z,103113.94
2023-02-28T23:03:52.119Z,103110.63
2023-02-28T23:06:24.632Z,103112.53
2023-02-28T23:08:53.748Z,103114.78
2023-02-28T23:11:24.072Z,103112.53
2023-02-28T23:14:00.566Z,103115.56
2023-02-28T23:16:46.432Z,103119.16
2023-02-28T23:19:16.885Z,103110.34
2023-02-28T23:21:44.513Z,103117.47
2023-02-28T23:24:12.603Z,103113.31
2023-02-28T23:26:43.798Z,103108.66
2023-02-28T23:29:11.998Z,103099.34
2023-02-28T23:31:39.717Z,103104.28
2023-02-28T23:34:07.566Z,103107.03
2023-02-28T23:36:34.332Z,103109.00
2023-02-28T23:39:01.164Z,103111.47
2023-02-28T23:41:27.794Z,103102.66
2023-02-28T23:43:54.811Z,103111.47
2023-02-28T23:46:21.936Z,103104.06
2023-02-28T23:48:48.554Z,103091.66
2023-02-28T23:51:18.007Z,103092.50
2023-02-28T23:53:47.421Z,103093.28
2023-02-28T23:56:16.806Z,103084.53
2023-02-28T23:58:44.645Z,103085.94
